sensor_id;sensor_type;location;lat;lon;timestamp;pressure;altitude;pressure_sealevel;temperature;humidity
20624;BME280;10471;42.736;23.346;2023-05-22T00:00:28;95301.84;;;14.71;100.00
20624;BME280;10471;42.736;23.346;2023-05-22T00:02:53;95294.69;;;14.72;100.00
20624;BME280;10471;42.736;23.346;2023-05-22T00:05:19;95293.28;;;14.74;100.00
20624;BME280;10471;42.736;23.346;2023-05-22T00:07:45;95295.94;;;14.74;100.00
20624;BME280;10471;42.736;23.346;2023-05-22T00:10:10;95302.00;;;14.75;100.00
20624;BME280;10471;42.736;23.346;2023-05-22T00:12:36;95300.13;;;14.75;100.00
20624;BME280;10471;42.736;23.346;2023-05-22T00:15:01;95299.53;;;14.78;100.00
20624;BME280;10471;42.736;23.346;2023-05-22T00:17:28;95298.94;;;14.81;100.00
20624;BME280;10471;42.736;23.346;2023-05-22T00:19:55;95303.47;;;14.81;100.00
20624;BME280;10471;42.736;23.346;2023-05-22T00:22:21;95301.13;;;14.79;100.00
20624;BME280;10471;42.736;23.346;2023-05-22T00:24:46;95300.03;;;14.80;100.00
20624;BME280;10471;42.736;23.346;2023-05-22T00:27:12;95301.59;;;14.81;100.00
20624;BME280;10471;42.736;23.346;2023-05-22T00:29:37;95302.19;;;14.78;100.00
20624;BME280;10471;42.736;23.346;2023-05-22T00:32:04;95302.63;;;14.72;100.00
20624;BME280;10471;42.736;23.346;2023-05-22T00:34:29;95299.31;;;14.66;100.00
20624;BME280;10471;42.736;23.346;2023-05-22T00:36:55;95301.19;;;14.66;100.00
20624;BME280;10471;42.736;23.346;2023-05-22T00:39:20;95303.97;;;14.61;100.00
20624;BME280;10471;42.736;23.346;2023-05-22T00:41:46;95299.41;;;14.61;100.00
20624;BME280;10471;42.736;23.346;2023-05-22T00:44:11;95299.41;;;14.61;100.00
20624;BME280;10471;42.736;23.346;2023-05-22T00:46:36;95305.03;;;14.60;100.00
20624;BME280;10471;42.736;23.346;2023-05-22T00:49:02;95304.84;;;14.56;100.00
20624;BME280;10471;42.736;23.346;2023-05-22T00:51:28;95301.25;;;14.52;100.00
20624;BME280;10471;42.736;23.346;2023-05-22T00:53:53;95299.66;;;14.51;100.00
20624;BME280;10471;42.736;23.346;2023-05-22T00:56:20;95293.50;;;14.43;100.00
20624;BME280;10471;42.736;23.346;2023-05-22T00:58:46;95301.66;;;14.46;100.00
20624;BME280;10471;42.736;23.346;2023-05-22T01:01:11;95287.72;;;14.41;100.00
20624;BME280;10471;42.736;23.346;2023-05-22T01:03:38;95288.34;;;14.38;100.00
20624;BME280;10471;42.736;23.346;2023-05-22T01:06:15;95293.75;;;14.33;100.00
20624;BME280;10471;42.736;23.346;2023-05-22T01:08:43;95290.09;;;14.29;100.00
20624;BME280;10471;42.736;23.346;2023-05-22T01:11:23;95287.41;;;14.20;100.00
20624;BME280;10471;42.736;23.346;2023-05-22T01:14:08;95283.66;;;14.21;100.00
20624;BME280;10471;42.736;23.346;2023-05-22T01:28:07;95289.97;;;13.98;100.00
20624;BME280;10471;42.736;23.346;2023-05-22T01:33:16;95279.41;;;13.85;100.00
20624;BME280;10471;42.736;23.346;2023-05-22T01:35:47;95279.97;;;13.82;100.00
20624;BME280;10471;42.736;23.346;2023-05-22T01:38:16;95285.28;;;13.82;100.00
20624;BME280;10471;42.736;23.346;2023-05-22T01:40:43;95279.00;;;13.78;100.00
20624;BME280;10471;42.736;23.346;2023-05-22T01:43:08;95280.69;;;13.74;100.00
20624;BME280;10471;42.736;23.346;2023-05-22T01:45:34;95285.03;;;13.70;100.00
20624;BME280;10471;42.736;23.346;2023-05-22T01:48:00;95294.34;;;13.68;100.00
20624;BME280;10471;42.736;23.346;2023-05-22T01:50:25;95279.63;;;13.62;100.00
20624;BME280;10471;42.736;23.346;2023-05-22T01:53:23;95277.84;;;13.57;100.00
20624;BME280;10471;42.736;23.346;2023-05-22T02:00:51;95277.84;;;13.44;100.00
20624;BME280;10471;42.736;23.346;2023-05-22T02:03:21;95278.75;;;13.39;100.00
20624;BME280;10471;42.736;23.346;2023-05-22T02:05:50;95276.69;;;13.36;100.00
20624;BME280;10471;42.736;23.346;2023-05-22T02:08:19;95274.94;;;13.32;100.00
20624;BME280;10471;42.736;23.346;2023-05-22T02:10:45;95274.72;;;13.28;100.00
20624;BME280;10471;42.736;23.346;2023-05-22T02:13:12;95277.28;;;13.20;100.00
20624;BME280;10471;42.736;23.346;2023-05-22T02:15:38;95279.81;;;13.11;100.00
20624;BME280;10471;42.736;23.346;2023-05-22T02:18:09;95283.81;;;13.09;100.00
20624;BME280;10471;42.736;23.346;2023-05-22T02:20:36;95285.50;;;13.05;100.00
20624;BME280;10471;42.736;23.346;2023-05-22T02:23:02;95277.84;;;13.04;100.00
20624;BME280;10471;42.736;23.346;2023-05-22T02:25:27;95279.22;;;13.01;100.00
20624;BME280;10471;42.736;23.346;2023-05-22T02:27:52;95275.00;;;13.00;100.00
20624;BME280;10471;42.736;23.346;2023-05-22T02:30:18;95274.78;;;12.97;100.00
20624;BME280;10471;42.736;23.346;2023-05-22T02:32:43;95274.28;;;12.95;100.00
20624;BME280;10471;42.736;23.346;2023-05-22T02:35:09;95280.19;;;12.92;100.00
20624;BME280;10471;42.736;23.346;2023-05-22T02:37:34;95279.97;;;12.88;100.00
20624;BME280;10471;42.736;23.346;2023-05-22T02:40:00;95278.41;;;12.87;100.00
20624;BME280;10471;42.736;23.346;2023-05-22T02:42:25;95281.09;;;12.82;100.00
20624;BME280;10471;42.736;23.346;2023-05-22T02:44:51;95275.03;;;12.82;100.00
20624;BME280;10471;42.736;23.346;2023-05-22T02:47:16;95275.31;;;12.80;100.00
20624;BME280;10471;42.736;23.346;2023-05-22T02:49:42;95274.06;;;12.78;100.00
20624;BME280;10471;42.736;23.346;2023-05-22T02:52:07;95277.47;;;12.78;100.00
20624;BME280;10471;42.736;23.346;2023-05-22T02:54:32;95278.31;;;12.74;100.00
20624;BME280;10471;42.736;23.346;2023-05-22T02:56:58;95278.31;;;12.74;100.00
20624;BME280;10471;42.736;23.346;2023-05-22T02:59:23;95275.69;;;12.74;100.00
20624;BME280;10471;42.736;23.346;2023-05-22T03:01:49;95271.97;;;12.75;100.00
20624;BME280;10471;42.736;23.346;2023-05-22T03:04:15;95281.78;;;12.74;100.00
20624;BME280;10471;42.736;23.346;2023-05-22T03:06:41;95272.84;;;12.70;100.00
20624;BME280;10471;42.736;23.346;2023-05-22T03:09:09;95267.09;;;12.50;100.00
20624;BME280;10471;42.736;23.346;2023-05-22T03:11:35;95270.25;;;12.52;100.00
20624;BME280;10471;42.736;23.346;2023-05-22T03:14:00;95273.81;;;12.61;100.00
20624;BME280;10471;42.736;23.346;2023-05-22T03:16:26;95275.84;;;12.64;100.00
20624;BME280;10471;42.736;23.346;2023-05-22T03:19:08;95264.97;;;12.65;100.00
20624;BME280;10471;42.736;23.346;2023-05-22T03:21:33;95274.19;;;12.68;100.00
20624;BME280;10471;42.736;23.346;2023-05-22T03:23:59;95282.63;;;12.70;100.00
20624;BME280;10471;42.736;23.346;2023-05-22T03:26:24;95268.34;;;12.71;100.00
20624;BME280;10471;42.736;23.346;2023-05-22T03:28:52;95270.91;;;12.76;100.00
20624;BME280;10471;42.736;23.346;2023-05-22T03:31:18;95268.38;;;12.84;100.00
20624;BME280;10471;42.736;23.346;2023-05-22T03:33:43;95265.44;;;12.86;100.00
20624;BME280;10471;42.736;23.346;2023-05-22T03:36:08;95264.88;;;12.89;100.00
20624;BME280;10471;42.736;23.346;2023-05-22T03:38:34;95267.03;;;12.87;100.00
20624;BME280;10471;42.736;23.346;2023-05-22T03:40:59;95271.72;;;12.90;100.00
20624;BME280;10471;42.736;23.346;2023-05-22T03:43:24;95272.75;;;12.94;100.00
20624;BME280;10471;42.736;23.346;2023-05-22T03:45:50;95275.75;;;12.87;100.00
20624;BME280;10471;42.736;23.346;2023-05-22T03:48:15;95276.81;;;12.86;100.00
20624;BME280;10471;42.736;23.346;2023-05-22T03:50:40;95275.81;;;12.82;100.00
20624;BME280;10471;42.736;23.346;2023-05-22T03:53:06;95283.63;;;12.74;100.00
20624;BME280;10471;42.736;23.346;2023-05-22T03:55:31;95280.06;;;12.65;100.00
20624;BME280;10471;42.736;23.346;2023-05-22T03:57:57;95285.56;;;12.68;100.00
20624;BME280;10471;42.736;23.346;2023-05-22T04:00:22;95284.78;;;12.68;100.00
20624;BME280;10471;42.736;23.346;2023-05-22T04:02:47;95286.56;;;12.72;100.00
20624;BME280;10471;42.736;23.346;2023-05-22T04:05:14;95292.06;;;12.76;100.00
20624;BME280;10471;42.736;23.346;2023-05-22T04:07:40;95291.97;;;12.81;100.00
20624;BME280;10471;42.736;23.346;2023-05-22T04:10:06;95291.97;;;12.81;100.00
20624;BME280;10471;42.736;23.346;2023-05-22T04:12:32;95290.91;;;12.82;100.00
20624;BME280;10471;42.736;23.346;2023-05-22T04:14:57;95287.59;;;12.90;100.00
20624;BME280;10471;42.736;23.346;2023-05-22T04:17:29;95288.03;;;12.97;100.00
20624;BME280;10471;42.736;23.346;2023-05-22T04:19:55;95286.25;;;13.06;100.00
20624;BME280;10471;42.736;23.346;2023-05-22T04:22:22;95292.94;;;13.16;100.00
20624;BME280;10471;42.736;23.346;2023-05-22T04:24:47;95289.13;;;13.22;100.00
20624;BME280;10471;42.736;23.346;2023-05-22T04:27:13;95288.44;;;13.30;100.00
20624;BME280;10471;42.736;23.346;2023-05-22T04:29:39;95287.78;;;13.38;100.00
20624;BME280;10471;42.736;23.346;2023-05-22T04:32:06;95286.59;;;13.44;100.00
20624;BME280;10471;42.736;23.346;2023-05-22T04:34:35;95287.28;;;13.50;100.00
20624;BME280;10471;42.736;23.346;2023-05-22T04:37:03;95296.69;;;13.56;100.00
20624;BME280;10471;42.736;23.346;2023-05-22T04:39:29;95289.41;;;13.61;100.00
20624;BME280;10471;42.736;23.346;2023-05-22T04:41:55;95295.72;;;13.65;100.00
20624;BME280;10471;42.736;23.346;2023-05-22T04:44:22;95304.13;;;13.67;100.00
20624;BME280;10471;42.736;23.346;2023-05-22T04:46:48;95298.06;;;13.80;100.00
20624;BME280;10471;42.736;23.346;2023-05-22T04:49:14;95304.31;;;13.97;100.00
20624;BME280;10471;42.736;23.346;2023-05-22T04:51:39;95302.72;;;14.10;100.00
20624;BME280;10471;42.736;23.346;2023-05-22T04:54:05;95303.38;;;14.29;100.00
20624;BME280;10471;42.736;23.346;2023-05-22T04:56:30;95307.25;;;14.44;100.00
20624;BME280;10471;42.736;23.346;2023-05-22T04:58:56;95300.22;;;14.62;100.00
20624;BME280;10471;42.736;23.346;2023-05-22T05:01:21;95303.28;;;14.77;100.00
20624;BME280;10471;42.736;23.346;2023-05-22T05:03:47;95303.66;;;14.84;100.00
20624;BME280;10471;42.736;23.346;2023-05-22T05:06:13;95306.06;;;14.94;100.00
20624;BME280;10471;42.736;23.346;2023-05-22T05:08:38;95312.00;;;15.00;100.00
20624;BME280;10471;42.736;23.346;2023-05-22T05:11:04;95317.88;;;14.88;100.00
20624;BME280;10471;42.736;23.346;2023-05-22T05:13:29;95311.00;;;14.87;100.00
20624;BME280;10471;42.736;23.346;2023-05-22T05:15:57;95316.34;;;14.96;100.00
20624;BME280;10471;42.736;23.346;2023-05-22T05:18:23;95312.06;;;15.08;100.00
20624;BME280;10471;42.736;23.346;2023-05-22T05:20:49;95312.69;;;15.27;100.00
20624;BME280;10471;42.736;23.346;2023-05-22T05:23:15;95317.59;;;15.42;100.00
20624;BME280;10471;42.736;23.346;2023-05-22T05:25:41;95315.59;;;15.56;100.00
20624;BME280;10471;42.736;23.346;2023-05-22T05:28:07;95317.19;;;15.57;100.00
20624;BME280;10471;42.736;23.346;2023-05-22T05:30:38;95318.94;;;15.70;100.00
20624;BME280;10471;42.736;23.346;2023-05-22T05:33:04;95324.06;;;15.66;100.00
20624;BME280;10471;42.736;23.346;2023-05-22T05:35:30;95313.47;;;15.74;100.00
20624;BME280;10471;42.736;23.346;2023-05-22T05:37:56;95311.97;;;15.90;100.00
20624;BME280;10471;42.736;23.346;2023-05-22T05:40:22;95312.31;;;15.97;100.00
20624;BME280;10471;42.736;23.346;2023-05-22T05:42:48;95315.59;;;16.11;100.00
20624;BME280;10471;42.736;23.346;2023-05-22T05:45:14;95320.03;;;16.24;100.00
20624;BME280;10471;42.736;23.346;2023-05-22T05:47:39;95315.50;;;16.33;100.00
20624;BME280;10471;42.736;23.346;2023-05-22T05:50:05;95319.13;;;16.45;100.00
20624;BME280;10471;42.736;23.346;2023-05-22T05:52:31;95314.13;;;16.44;100.00
20624;BME280;10471;42.736;23.346;2023-05-22T05:54:58;95320.38;;;16.48;100.00
20624;BME280;10471;42.736;23.346;2023-05-22T05:57:25;95333.22;;;16.63;100.00
20624;BME280;10471;42.736;23.346;2023-05-22T05:59:51;95326.63;;;16.86;100.00
20624;BME280;10471;42.736;23.346;2023-05-22T06:02:16;95319.25;;;16.91;100.00
20624;BME280;10471;42.736;23.346;2023-05-22T06:04:42;95322.88;;;16.95;100.00
20624;BME280;10471;42.736;23.346;2023-05-22T06:07:07;95318.47;;;17.16;100.00
20624;BME280;10471;42.736;23.346;2023-05-22T06:09:32;95319.88;;;17.05;100.00
20624;BME280;10471;42.736;23.346;2023-05-22T06:11:58;95326.88;;;17.18;100.00
20624;BME280;10471;42.736;23.346;2023-05-22T06:14:23;95320.50;;;17.27;100.00
20624;BME280;10471;42.736;23.346;2023-05-22T06:16:49;95321.53;;;17.43;100.00
20624;BME280;10471;42.736;23.346;2023-05-22T06:19:14;95327.41;;;17.66;100.00
20624;BME280;10471;42.736;23.346;2023-05-22T06:21:39;95327.19;;;17.79;100.00
20624;BME280;10471;42.736;23.346;2023-05-22T06:24:05;95329.47;;;17.60;100.00
20624;BME280;10471;42.736;23.346;2023-05-22T06:26:31;95323.16;;;17.73;100.00
20624;BME280;10471;42.736;23.346;2023-05-22T06:28:57;95331.25;;;17.85;100.00
20624;BME280;10471;42.736;23.346;2023-05-22T06:31:22;95327.97;;;17.79;100.00
20624;BME280;10471;42.736;23.346;2023-05-22T06:33:48;95327.50;;;17.86;100.00
20624;BME280;10471;42.736;23.346;2023-05-22T06:36:14;95329.78;;;17.96;100.00
20624;BME280;10471;42.736;23.346;2023-05-22T06:38:40;95323.63;;;18.04;100.00
20624;BME280;10471;42.736;23.346;2023-05-22T06:41:05;95318.06;;;18.17;100.00
20624;BME280;10471;42.736;23.346;2023-05-22T06:43:32;95330.16;;;18.15;100.00
20624;BME280;10471;42.736;23.346;2023-05-22T06:45:57;95331.22;;;18.22;100.00
20624;BME280;10471;42.736;23.346;2023-05-22T06:48:23;95331.66;;;18.33;100.00
20624;BME280;10471;42.736;23.346;2023-05-22T06:50:48;95322.66;;;18.37;100.00
20624;BME280;10471;42.736;23.346;2023-05-22T06:53:13;95323.69;;;18.44;100.00
20624;BME280;10471;42.736;23.346;2023-05-22T06:55:39;95324.38;;;18.42;100.00
20624;BME280;10471;42.736;23.346;2023-05-22T06:58:04;95325.00;;;18.39;100.00
20624;BME280;10471;42.736;23.346;2023-05-22T07:00:30;95325.28;;;18.45;99.27
20624;BME280;10471;42.736;23.346;2023-05-22T07:02:55;95331.84;;;18.48;100.00
20624;BME280;10471;42.736;23.346;2023-05-22T07:05:21;95336.16;;;18.61;98.70
20624;BME280;10471;42.736;23.346;2023-05-22T07:07:46;95332.78;;;18.72;96.64
20624;BME280;10471;42.736;23.346;2023-05-22T07:10:11;95328.25;;;18.64;90.90
20624;BME280;10471;42.736;23.346;2023-05-22T07:12:37;95329.03;;;18.85;87.31
20624;BME280;10471;42.736;23.346;2023-05-22T07:15:03;95328.75;;;18.99;77.19
20624;BME280;10471;42.736;23.346;2023-05-22T07:17:28;95327.44;;;19.25;78.80
20624;BME280;10471;42.736;23.346;2023-05-22T07:19:53;95322.28;;;19.52;79.95
20624;BME280;10471;42.736;23.346;2023-05-22T07:22:19;95322.31;;;19.76;82.44
20624;BME280;10471;42.736;23.346;2023-05-22T07:24:44;95325.25;;;19.95;76.00
20624;BME280;10471;42.736;23.346;2023-05-22T07:27:11;95328.84;;;20.11;68.78
20624;BME280;10471;42.736;23.346;2023-05-22T07:29:37;95324.25;;;20.11;70.79
20624;BME280;10471;42.736;23.346;2023-05-22T07:32:02;95333.16;;;20.27;74.70
20624;BME280;10471;42.736;23.346;2023-05-22T07:34:28;95313.94;;;20.49;78.70
20624;BME280;10471;42.736;23.346;2023-05-22T07:36:57;95319.47;;;20.80;74.44
20624;BME280;10471;42.736;23.346;2023-05-22T07:39:23;95316.56;;;20.85;67.75
20624;BME280;10471;42.736;23.346;2023-05-22T07:41:48;95318.50;;;21.00;71.88
20624;BME280;10471;42.736;23.346;2023-05-22T07:44:14;95324.78;;;21.19;73.93
20624;BME280;10471;42.736;23.346;2023-05-22T07:46:40;95312.59;;;21.21;68.73
20624;BME280;10471;42.736;23.346;2023-05-22T07:49:05;95313.41;;;21.37;72.68
20624;BME280;10471;42.736;23.346;2023-05-22T07:51:30;95311.94;;;21.40;65.87
20624;BME280;10471;42.736;23.346;2023-05-22T07:53:56;95308.41;;;21.51;67.91
20624;BME280;10471;42.736;23.346;2023-05-22T07:56:21;95308.56;;;21.43;64.88
20624;BME280;10471;42.736;23.346;2023-05-22T07:58:50;95305.31;;;21.49;70.97
20624;BME280;10471;42.736;23.346;2023-05-22T08:01:15;95312.88;;;21.59;69.78
20624;BME280;10471;42.736;23.346;2023-05-22T08:03:41;95303.88;;;21.67;69.42
20624;BME280;10471;42.736;23.346;2023-05-22T08:06:07;95306.03;;;21.77;69.71
20624;BME280;10471;42.736;23.346;2023-05-22T08:08:32;95307.41;;;21.71;73.79
20624;BME280;10471;42.736;23.346;2023-05-22T08:10:58;95304.66;;;21.83;65.15
20624;BME280;10471;42.736;23.346;2023-05-22T08:13:24;95308.47;;;21.82;68.24
20624;BME280;10471;42.736;23.346;2023-05-22T08:15:50;95314.94;;;21.81;65.46
20624;BME280;10471;42.736;23.346;2023-05-22T08:18:15;95310.38;;;21.81;63.00
20624;BME280;10471;42.736;23.346;2023-05-22T08:20:40;95313.31;;;21.92;65.03
20624;BME280;10471;42.736;23.346;2023-05-22T08:23:06;95306.47;;;21.79;65.33
20624;BME280;10471;42.736;23.346;2023-05-22T08:25:32;95312.09;;;21.74;61.00
20624;BME280;10471;42.736;23.346;2023-05-22T08:27:57;95308.63;;;21.89;59.77
20624;BME280;10471;42.736;23.346;2023-05-22T08:30:22;95305.06;;;22.00;59.21
20624;BME280;10471;42.736;23.346;2023-05-22T08:32:48;95307.56;;;22.24;62.96
20624;BME280;10471;42.736;23.346;2023-05-22T08:35:13;95308.09;;;22.45;61.89
20624;BME280;10471;42.736;23.346;2023-05-22T08:37:39;95310.44;;;22.65;54.33
20624;BME280;10471;42.736;23.346;2023-05-22T08:40:06;95307.63;;;22.77;57.81
20624;BME280;10471;42.736;23.346;2023-05-22T08:42:34;95311.03;;;22.93;56.21
20624;BME280;10471;42.736;23.346;2023-05-22T08:45:00;95302.34;;;23.18;53.64
20624;BME280;10471;42.736;23.346;2023-05-22T08:47:25;95306.75;;;23.49;55.12
20624;BME280;10471;42.736;23.346;2023-05-22T08:49:52;95297.50;;;23.69;51.40
20624;BME280;10471;42.736;23.346;2023-05-22T08:52:26;95297.97;;;23.71;49.64
20624;BME280;10471;42.736;23.346;2023-05-22T08:54:54;95303.19;;;23.64;50.94
20624;BME280;10471;42.736;23.346;2023-05-22T08:57:21;95299.63;;;23.37;55.16
20624;BME280;10471;42.736;23.346;2023-05-22T08:59:48;95306.94;;;23.18;51.28
20624;BME280;10471;42.736;23.346;2023-05-22T09:02:15;95301.13;;;23.16;52.28
20624;BME280;10471;42.736;23.346;2023-05-22T09:04:41;95295.59;;;22.90;51.77
20624;BME280;10471;42.736;23.346;2023-05-22T09:07:06;95298.19;;;22.68;51.56
20624;BME280;10471;42.736;23.346;2023-05-22T09:09:39;95303.94;;;22.66;51.35
20624;BME280;10471;42.736;23.346;2023-05-22T09:12:06;95294.88;;;22.55;52.99
20624;BME280;10471;42.736;23.346;2023-05-22T09:14:42;95301.94;;;22.14;53.12
20624;BME280;10471;42.736;23.346;2023-05-22T09:17:08;95303.91;;;22.17;54.73
20624;BME280;10471;42.736;23.346;2023-05-22T09:19:35;95305.66;;;22.25;51.17
20624;BME280;10471;42.736;23.346;2023-05-22T09:22:02;95300.63;;;22.39;51.40
20624;BME280;10471;42.736;23.346;2023-05-22T09:24:28;95298.94;;;22.49;56.71
20624;BME280;10471;42.736;23.346;2023-05-22T09:26:54;95295.31;;;22.57;59.26
20624;BME280;10471;42.736;23.346;2023-05-22T09:29:19;95293.63;;;22.68;58.67
20624;BME280;10471;42.736;23.346;2023-05-22T09:31:44;95298.72;;;22.92;55.80
20624;BME280;10471;42.736;23.346;2023-05-22T09:34:11;95305.53;;;23.24;52.62
20624;BME280;10471;42.736;23.346;2023-05-22T09:36:39;95292.31;;;23.57;52.60
20624;BME280;10471;42.736;23.346;2023-05-22T09:39:06;95295.19;;;23.89;51.88
20624;BME280;10471;42.736;23.346;2023-05-22T09:41:37;95295.44;;;24.03;52.27
20624;BME280;10471;42.736;23.346;2023-05-22T09:44:12;95296.03;;;24.19;51.11
20624;BME280;10471;42.736;23.346;2023-05-22T09:46:43;95304.34;;;24.33;51.00
20624;BME280;10471;42.736;23.346;2023-05-22T09:49:09;95298.78;;;24.23;51.51
20624;BME280;10471;42.736;23.346;2023-05-22T09:51:38;95296.59;;;24.28;50.62
20624;BME280;10471;42.736;23.346;2023-05-22T09:54:06;95303.59;;;24.10;51.08
20624;BME280;10471;42.736;23.346;2023-05-22T09:56:35;95300.28;;;23.94;52.67
20624;BME280;10471;42.736;23.346;2023-05-22T09:59:00;95303.56;;;23.84;54.45
20624;BME280;10471;42.736;23.346;2023-05-22T10:01:26;95300.69;;;23.96;53.02
20624;BME280;10471;42.736;23.346;2023-05-22T10:03:53;95297.66;;;23.76;52.35
20624;BME280;10471;42.736;23.346;2023-05-22T10:06:20;95302.59;;;23.74;51.79
20624;BME280;10471;42.736;23.346;2023-05-22T10:08:49;95300.34;;;23.76;52.07
20624;BME280;10471;42.736;23.346;2023-05-22T10:11:18;95296.00;;;23.93;53.98
20624;BME280;10471;42.736;23.346;2023-05-22T10:13:45;95296.13;;;24.00;53.32
20624;BME280;10471;42.736;23.346;2023-05-22T10:16:14;95293.97;;;24.09;52.73
20624;BME280;10471;42.736;23.346;2023-05-22T10:18:44;95295.44;;;24.03;51.88
20624;BME280;10471;42.736;23.346;2023-05-22T10:21:10;95299.88;;;23.92;51.89
20624;BME280;10471;42.736;23.346;2023-05-22T10:23:37;95292.63;;;23.74;53.23
20624;BME280;10471;42.736;23.346;2023-05-22T10:26:03;95300.91;;;23.66;54.08
20624;BME280;10471;42.736;23.346;2023-05-22T10:28:41;95294.34;;;23.63;52.14
20624;BME280;10471;42.736;23.346;2023-05-22T10:31:34;95299.81;;;23.48;52.65
20624;BME280;10471;42.736;23.346;2023-05-22T10:34:03;95300.97;;;23.28;53.19
20624;BME280;10471;42.736;23.346;2023-05-22T10:41:54;95298.41;;;23.13;53.99
20624;BME280;10471;42.736;23.346;2023-05-22T10:44:20;95301.28;;;23.23;55.00
20624;BME280;10471;42.736;23.346;2023-05-22T10:46:49;95302.78;;;23.43;56.58
20624;BME280;10471;42.736;23.346;2023-05-22T10:49:21;95293.34;;;23.71;55.61
20624;BME280;10471;42.736;23.346;2023-05-22T10:51:55;95293.13;;;24.05;55.13
20624;BME280;10471;42.736;23.346;2023-05-22T10:54:37;95295.44;;;24.29;54.01
20624;BME280;10471;42.736;23.346;2023-05-22T10:57:14;95285.56;;;24.66;53.76
20624;BME280;10471;42.736;23.346;2023-05-22T10:59:46;95287.19;;;25.00;48.72
20624;BME280;10471;42.736;23.346;2023-05-22T11:02:24;95281.44;;;24.72;47.24
20624;BME280;10471;42.736;23.346;2023-05-22T11:08:38;95285.84;;;24.83;48.73
20624;BME280;10471;42.736;23.346;2023-05-22T11:11:11;95283.53;;;24.85;50.68
20624;BME280;10471;42.736;23.346;2023-05-22T11:13:37;95284.69;;;24.55;49.76
20624;BME280;10471;42.736;23.346;2023-05-22T11:16:07;95283.78;;;24.47;49.53
20624;BME280;10471;42.736;23.346;2023-05-22T11:18:33;95282.31;;;24.50;49.98
20624;BME280;10471;42.736;23.346;2023-05-22T11:20:58;95280.25;;;24.18;50.29
20624;BME280;10471;42.736;23.346;2023-05-22T11:23:25;95276.03;;;23.94;50.89
20624;BME280;10471;42.736;23.346;2023-05-22T11:25:50;95288.59;;;23.87;53.56
20624;BME280;10471;42.736;23.346;2023-05-22T11:28:15;95278.94;;;23.82;61.28
20624;BME280;10471;42.736;23.346;2023-05-22T11:30:42;95289.19;;;23.55;64.63
20624;BME280;10471;42.736;23.346;2023-05-22T11:33:07;95315.97;;;22.91;60.17
20624;BME280;10471;42.736;23.346;2023-05-22T11:35:33;95313.94;;;22.01;65.84
20624;BME280;10471;42.736;23.346;2023-05-22T11:38:03;95327.84;;;20.78;73.85
20624;BME280;10471;42.736;23.346;2023-05-22T11:40:28;95325.91;;;20.04;86.70
20624;BME280;10471;42.736;23.346;2023-05-22T11:42:54;95316.69;;;19.33;100.00
20624;BME280;10471;42.736;23.346;2023-05-22T11:45:19;95321.16;;;19.09;100.00
20624;BME280;10471;42.736;23.346;2023-05-22T11:47:45;95318.91;;;18.58;100.00
20624;BME280;10471;42.736;23.346;2023-05-22T11:50:12;95317.47;;;18.41;100.00
20624;BME280;10471;42.736;23.346;2023-05-22T11:52:40;95316.72;;;18.52;100.00
20624;BME280;10471;42.736;23.346;2023-05-22T11:55:06;95317.97;;;18.34;100.00
20624;BME280;10471;42.736;23.346;2023-05-22T11:57:33;95318.75;;;18.35;100.00
20624;BME280;10471;42.736;23.346;2023-05-22T12:00:03;95323.47;;;18.38;100.00
20624;BME280;10471;42.736;23.346;2023-05-22T12:02:30;95324.81;;;18.43;100.00
20624;BME280;10471;42.736;23.346;2023-05-22T12:04:56;95325.66;;;18.36;100.00
20624;BME280;10471;42.736;23.346;2023-05-22T12:07:23;95319.53;;;18.55;100.00
20624;BME280;10471;42.736;23.346;2023-05-22T12:09:50;95314.53;;;18.74;100.00
20624;BME280;10471;42.736;23.346;2023-05-22T12:12:15;95321.22;;;18.80;100.00
20624;BME280;10471;42.736;23.346;2023-05-22T12:14:44;95321.75;;;18.94;100.00
20624;BME280;10471;42.736;23.346;2023-05-22T12:17:14;95323.63;;;19.14;100.00
20624;BME280;10471;42.736;23.346;2023-05-22T12:19:41;95313.00;;;19.38;100.00
20624;BME280;10471;42.736;23.346;2023-05-22T12:22:08;95320.84;;;19.55;100.00
20624;BME280;10471;42.736;23.346;2023-05-22T12:24:44;95314.72;;;19.54;100.00
20624;BME280;10471;42.736;23.346;2023-05-22T12:27:13;95311.41;;;19.25;100.00
20624;BME280;10471;42.736;23.346;2023-05-22T12:29:39;95314.38;;;19.11;100.00
20624;BME280;10471;42.736;23.346;2023-05-22T12:32:10;95317.31;;;18.98;100.00
20624;BME280;10471;42.736;23.346;2023-05-22T12:34:44;95317.03;;;18.91;100.00
20624;BME280;10471;42.736;23.346;2023-05-22T12:37:20;95327.09;;;18.74;100.00
20624;BME280;10471;42.736;23.346;2023-05-22T12:42:19;95315.09;;;18.19;100.00
20624;BME280;10471;42.736;23.346;2023-05-22T12:44:44;95296.81;;;18.00;100.00
20624;BME280;10471;42.736;23.346;2023-05-22T12:47:10;95312.56;;;18.14;100.00
20624;BME280;10471;42.736;23.346;2023-05-22T12:49:35;95323.94;;;18.31;100.00
20624;BME280;10471;42.736;23.346;2023-05-22T12:52:01;95319.66;;;18.39;100.00
20624;BME280;10471;42.736;23.346;2023-05-22T12:54:26;95303.59;;;18.47;100.00
20624;BME280;10471;42.736;23.346;2023-05-22T12:56:52;95305.09;;;18.56;100.00
20624;BME280;10471;42.736;23.346;2023-05-22T12:59:17;95309.56;;;18.64;100.00
20624;BME280;10471;42.736;23.346;2023-05-22T13:01:42;95292.72;;;18.52;100.00
20624;BME280;10471;42.736;23.346;2023-05-22T13:04:08;95299.03;;;18.68;100.00
20624;BME280;10471;42.736;23.346;2023-05-22T13:06:33;95298.41;;;18.83;100.00
20624;BME280;10471;42.736;23.346;2023-05-22T13:08:58;95288.75;;;18.90;100.00
20624;BME280;10471;42.736;23.346;2023-05-22T13:11:24;95284.56;;;19.01;100.00